createdAt,value
2019-04-25T00:01:08.908Z,99596.27
2019-04-25T00:03:56.425Z,99615.41
2019-04-25T00:07:04.739Z,99649.23
2019-04-25T00:13:03.590Z,99663.43
2019-04-25T00:15:51.967Z,99686.04
2019-04-25T00:18:42.774Z,99729.73
2019-04-25T00:24:45.168Z,99748.41
2019-04-25T00:29:49.037Z,99763.74
2019-04-25T00:32:36.699Z,99771.24
2019-04-25T00:35:45.737Z,99772.29
2019-04-25T00:38:15.147Z,99782.48
2019-04-25T00:41:02.915Z,99785.47
2019-04-25T00:44:12.102Z,99788.00
2019-04-25T00:46:44.836Z,99801.66
2019-04-25T00:49:12.260Z,99805.80
2019-04-25T00:57:08.867Z,99815.97
2019-04-25T00:59:56.395Z,99818.39
2019-04-25T01:05:24.146Z,99819.90
2019-04-25T01:08:12.057Z,99830.73
2019-04-25T01:16:31.838Z,99819.77
2019-04-25T01:19:00.920Z,99822.59
2019-04-25T01:21:49.135Z,99824.23
2019-04-25T01:24:58.596Z,99822.63
2019-04-25T01:27:46.342Z,99817.93
2019-04-25T01:30:55.116Z,99823.81
2019-04-25T01:34:04.679Z,99821.45
2019-04-25T01:36:53.228Z,99817.44
2019-04-25T01:39:41.458Z,99820.91
2019-04-25T01:42:29.043Z,99826.70
2019-04-25T01:55:55.934Z,99805.98
2019-04-25T01:58:20.091Z,99806.08
2019-04-25T02:01:07.733Z,99815.80
2019-04-25T02:03:36.140Z,99818.98
2019-04-25T02:14:54.722Z,99823.52
2019-04-25T02:22:57.944Z,99824.44
2019-04-25T02:25:27.560Z,99821.01
2019-04-25T02:28:15.850Z,99813.59
2019-04-25T02:31:08.661Z,99806.08
2019-04-25T02:33:34.821Z,99789.94
2019-04-25T02:36:08.309Z,99796.63
2019-04-25T02:38:34.175Z,99813.86
2019-04-25T02:41:24.953Z,99815.79
2019-04-25T02:44:11.957Z,99811.42
2019-04-25T02:47:01.001Z,99810.22
2019-04-25T02:50:09.121Z,99807.39
2019-04-25T02:58:26.896Z,99791.93
2019-04-25T03:01:35.198Z,99797.23
2019-04-25T03:04:24.017Z,99792.75
2019-04-25T03:07:11.825Z,99792.12
2019-04-25T03:10:20.088Z,99789.55
2019-04-25T03:13:28.398Z,99787.52
2019-04-25T03:15:58.445Z,99782.59
2019-04-25T03:26:53.225Z,99828.49
2019-04-25T03:29:41.227Z,99837.06
2019-04-25T03:32:28.760Z,99840.20
2019-04-25T03:34:57.148Z,99837.00
2019-04-25T03:37:44.816Z,99849.00
2019-04-25T03:40:33.968Z,99851.51
2019-04-25T03:45:36.496Z,99865.10
2019-04-25T03:48:05.622Z,99868.59
2019-04-25T03:50:35.036Z,99874.95
2019-04-25T03:53:05.417Z,99878.05
2019-04-25T03:55:35.685Z,99883.37
2019-04-25T03:58:06.605Z,99886.36
2019-04-25T04:01:15.450Z,99897.03
2019-04-25T04:03:44.136Z,99898.83
2019-04-25T04:06:15.527Z,99895.51
2019-04-25T04:11:57.872Z,99893.30
2019-04-25T04:14:45.543Z,99891.34
2019-04-25T04:17:53.612Z,99896.95
2019-04-25T04:20:41.220Z,99894.66
2019-04-25T04:23:28.756Z,99899.36
2019-04-25T04:31:20.235Z,99900.58
2019-04-25T04:33:48.656Z,99904.53
2019-04-25T04:36:31.215Z,99894.66
2019-04-25T04:39:06.451Z,99899.26
2019-04-25T04:41:55.459Z,99899.38
2019-04-25T04:44:24.253Z,99900.09
2019-04-25T04:49:40.056Z,99911.30
2019-04-25T04:52:27.804Z,99904.22
2019-04-25T04:55:05.453Z,99916.66
2019-04-25T04:57:45.595Z,99906.33
2019-04-25T05:00:53.921Z,99913.43
2019-04-25T05:04:00.700Z,99928.94
2019-04-25T05:06:48.215Z,99928.84
2019-04-25T05:11:52.158Z,99943.41
2019-04-25T05:14:39.678Z,99952.30
2019-04-25T05:17:27.194Z,99960.80
2019-04-25T05:20:16.388Z,99976.39
2019-04-25T05:22:44.963Z,99982.81
2019-04-25T05:25:54.185Z,99986.39
2019-04-25T05:28:42.525Z,100006.63
2019-04-25T05:37:14.363Z,100035.05
2019-04-25T05:39:43.465Z,100046.55
2019-04-25T05:45:02.133Z,100044.41
2019-04-25T05:47:49.883Z,100048.04
2019-04-25T05:50:37.528Z,100047.92
2019-04-25T05:53:05.933Z,100049.09
2019-04-25T05:55:54.079Z,100037.63
2019-04-25T05:58:25.466Z,100037.71
2019-04-25T06:03:33.928Z,100055.67
2019-04-25T06:06:23.626Z,100061.40
2019-04-25T06:12:00.869Z,100065.86
2019-04-25T06:14:29.248Z,100077.52
2019-04-25T06:17:16.764Z,100074.34
2019-04-25T06:20:25.746Z,100072.17
2019-04-25T06:23:14.648Z,100077.98
2019-04-25T06:25:43.941Z,100074.72
2019-04-25T06:31:04.071Z,100070.80
2019-04-25T06:33:33.915Z,100061.00
2019-04-25T06:36:04.165Z,100072.25
2019-04-25T06:42:46.711Z,100081.77
2019-04-25T06:45:55.447Z,100083.36
2019-04-25T06:48:45.547Z,100082.77
2019-04-25T06:51:54.430Z,100077.52
2019-04-25T06:54:25.244Z,100082.40
2019-04-25T06:57:11.958Z,100079.08
2019-04-25T06:59:59.608Z,100094.78
2019-04-25T07:05:55.368Z,100097.27
2019-04-25T07:11:11.218Z,100097.39
2019-04-25T07:16:46.467Z,100107.50
2019-04-25T07:19:35.453Z,100114.25
2019-04-25T07:24:58.835Z,100120.23
2019-04-25T07:30:56.233Z,100116.56
2019-04-25T07:34:03.316Z,100114.03
2019-04-25T07:36:31.684Z,100111.53
2019-04-25T07:39:08.217Z,100109.27
2019-04-25T07:41:49.703Z,100108.21
2019-04-25T07:44:49.408Z,100101.87
2019-04-25T07:47:47.454Z,100093.41
2019-04-25T07:50:55.789Z,100091.13
2019-04-25T07:53:26.990Z,100105.41
2019-04-25T07:55:54.308Z,100112.11
2019-04-25T07:58:50.483Z,100111.06
2019-04-25T08:01:53.431Z,100116.48
2019-04-25T08:04:23.615Z,100122.13
2019-04-25T08:07:11.325Z,100124.84
2019-04-25T08:09:39.810Z,100124.10
2019-04-25T08:12:28.342Z,100121.28
2019-04-25T08:15:16.791Z,100117.53
2019-04-25T08:18:04.308Z,100130.50
2019-04-25T08:21:12.631Z,100116.42
2019-04-25T08:24:20.933Z,100125.64
2019-04-25T08:27:08.587Z,100125.57
2019-04-25T08:35:39.301Z,100134.54
2019-04-25T08:40:42.471Z,100141.44
2019-04-25T08:43:11.529Z,100136.48
2019-04-25T08:45:39.934Z,100130.29
2019-04-25T08:56:34.289Z,100124.87
2019-04-25T08:59:46.076Z,100116.50
2019-04-25T09:02:30.193Z,100116.40
2019-04-25T09:05:17.713Z,100119.45
2019-04-25T09:07:46.190Z,100123.94
2019-04-25T09:10:35.771Z,100123.05
2019-04-25T09:16:17.665Z,100120.90
2019-04-25T09:21:34.652Z,100124.33
2019-04-25T09:24:03.669Z,100127.77
2019-04-25T09:26:32.088Z,100128.61
2019-04-25T09:29:14.565Z,100116.42
2019-04-25T09:34:07.965Z,100097.91
2019-04-25T09:36:36.368Z,100081.73
2019-04-25T09:39:44.291Z,100075.25
2019-04-25T09:42:33.686Z,100078.72
2019-04-25T09:45:24.089Z,100101.00
2019-04-25T09:48:10.594Z,100109.77
2019-04-25T09:51:17.369Z,100122.00
2019-04-25T09:57:03.783Z,100156.21
2019-04-25T10:02:38.940Z,100135.06
2019-04-25T10:05:47.239Z,100137.06
2019-04-25T10:08:34.959Z,100140.52
2019-04-25T10:11:43.991Z,100151.47
2019-04-25T10:14:54.285Z,100139.38
2019-04-25T10:17:43.921Z,100134.56
2019-04-25T10:20:33.363Z,100134.50
2019-04-25T10:23:02.415Z,100131.02
2019-04-25T10:25:30.902Z,100129.16
2019-04-25T10:28:18.623Z,100119.84
2019-04-25T10:31:06.210Z,100119.59
2019-04-25T10:33:34.682Z,100120.08
2019-04-25T10:41:24.625Z,100130.02
2019-04-25T10:44:14.009Z,100133.55
2019-04-25T10:46:42.493Z,100132.16
2019-04-25T10:49:14.166Z,100142.78
2019-04-25T10:51:44.259Z,100129.08
2019-04-25T10:54:14.503Z,100135.41
2019-04-25T10:56:45.704Z,100137.27
2019-04-25T10:59:14.483Z,100126.34
2019-04-25T11:07:07.781Z,100125.70
2019-04-25T11:09:55.438Z,100111.27
2019-04-25T11:12:23.839Z,100123.64
2019-04-25T11:15:33.881Z,100119.54
2019-04-25T11:18:02.279Z,100122.55
2019-04-25T11:21:10.602Z,100124.73
2019-04-25T11:26:34.621Z,100122.30
2019-04-25T11:31:58.507Z,100122.94
2019-04-25T11:34:26.921Z,100129.11
2019-04-25T11:37:14.797Z,100120.80
2019-04-25T11:42:23.501Z,100119.84
2019-04-25T11:44:52.715Z,100117.95
2019-04-25T11:47:22.027Z,100119.30
2019-04-25T11:49:50.444Z,100112.21
2019-04-25T11:52:27.291Z,100110.72
2019-04-25T11:54:50.058Z,100106.27
2019-04-25T11:57:18.495Z,100104.22
2019-04-25T11:59:49.238Z,100103.50
2019-04-25T12:02:17.092Z,100096.18
2019-04-25T12:04:46.847Z,100104.14
2019-04-25T12:07:15.855Z,100102.59
2019-04-25T12:09:46.478Z,100099.84
2019-04-25T12:12:14.705Z,100110.77
2019-04-25T12:14:44.233Z,100103.86
2019-04-25T12:17:13.411Z,100112.23
2019-04-25T12:19:41.820Z,100109.97
2019-04-25T12:22:10.220Z,100102.92
2019-04-25T12:24:38.628Z,100099.58
2019-04-25T12:27:07.019Z,100100.48
2019-04-25T12:29:38.731Z,100106.00
2019-04-25T12:32:06.451Z,100099.55
2019-04-25T12:34:34.852Z,100096.42
2019-04-25T12:37:03.945Z,100087.20
2019-04-25T12:39:34.206Z,100087.72
2019-04-25T12:42:04.303Z,100089.40
2019-04-25T12:44:50.897Z,100090.84
2019-04-25T12:47:29.636Z,100100.29
2019-04-25T12:49:58.040Z,100096.02
2019-04-25T12:52:26.437Z,100090.80
2019-04-25T12:57:29.481Z,100093.66
2019-04-25T13:00:17.007Z,100081.67
2019-04-25T13:05:34.215Z,100081.63
2019-04-25T13:08:04.560Z,100076.46
2019-04-25T13:13:08.375Z,100090.88
2019-04-25T13:15:56.838Z,100081.27
2019-04-25T13:18:44.489Z,100084.27
2019-04-25T13:21:13.691Z,100082.73
2019-04-25T13:23:44.319Z,100083.96
2019-04-25T13:29:07.933Z,100065.05
2019-04-25T13:32:14.791Z,100068.38
2019-04-25T13:37:50.642Z,100068.56
2019-04-25T13:40:38.204Z,100060.66
2019-04-25T13:43:06.578Z,100060.25
2019-04-25T13:45:54.098Z,100073.56
2019-04-25T13:48:25.566Z,100071.80
2019-04-25T13:50:54.049Z,100066.16
2019-04-25T13:53:23.547Z,100065.88
2019-04-25T13:55:52.880Z,100072.02
2019-04-25T13:58:40.614Z,100059.52
2019-04-25T14:04:25.450Z,100050.30
2019-04-25T14:06:54.553Z,100047.20
2019-04-25T14:14:46.146Z,100037.56
2019-04-25T14:17:53.807Z,100043.38
2019-04-25T14:20:41.321Z,100040.40
2019-04-25T14:23:29.423Z,100036.31
2019-04-25T14:26:18.539Z,100027.80
2019-04-25T14:28:46.940Z,100039.78
2019-04-25T14:31:44.900Z,100035.11
2019-04-25T14:34:05.112Z,100027.33
2019-04-25T14:39:28.006Z,100017.36
2019-04-25T14:44:49.795Z,100000.92
2019-04-25T14:50:47.208Z,100006.63
2019-04-25T14:53:35.253Z,99998.75
2019-04-25T14:56:43.411Z,99996.66
2019-04-25T15:02:00.900Z,99985.56
2019-04-25T15:05:09.239Z,99987.78
2019-04-25T15:13:19.683Z,99975.48
2019-04-25T15:16:07.379Z,99979.58
2019-04-25T15:18:54.886Z,99976.20
2019-04-25T15:21:23.311Z,99969.83
2019-04-25T15:23:59.967Z,99956.45
2019-04-25T15:26:21.836Z,99960.66
2019-04-25T15:31:37.830Z,99954.82
2019-04-25T15:37:33.762Z,99946.84
2019-04-25T15:43:29.793Z,99943.32
2019-04-25T15:48:53.000Z,99944.11
2019-04-25T15:51:21.471Z,99944.63
2019-04-25T15:53:49.870Z,99940.80
2019-04-25T15:56:37.392Z,99946.51
2019-04-25T15:59:05.863Z,99944.02
2019-04-25T16:04:28.224Z,99940.08
2019-04-25T16:07:16.824Z,99938.09
2019-04-25T16:09:45.229Z,99931.33
2019-04-25T16:12:32.893Z,99928.10
2019-04-25T16:17:48.721Z,99920.22
2019-04-25T16:20:36.358Z,99924.06
2019-04-25T16:25:41.218Z,99925.98
2019-04-25T16:28:29.714Z,99919.67
2019-04-25T16:36:30.830Z,99911.38
2019-04-25T16:42:47.426Z,99898.46
2019-04-25T16:45:55.721Z,99904.09
2019-04-25T16:51:03.084Z,99898.46
2019-04-25T16:53:50.733Z,99890.87
2019-04-25T16:56:38.256Z,99893.16
2019-04-25T16:59:46.575Z,99890.25
2019-04-25T17:02:37.552Z,99888.30
2019-04-25T17:05:44.524Z,99890.84
2019-04-25T17:10:51.683Z,99885.41
2019-04-25T17:16:34.722Z,99888.14
2019-04-25T17:21:43.048Z,99886.03
2019-04-25T17:24:12.925Z,99889.92
2019-04-25T17:27:00.447Z,99885.43
2019-04-25T17:29:48.164Z,99889.36
2019-04-25T17:32:49.473Z,99886.41
2019-04-25T17:35:45.777Z,99885.47
2019-04-25T17:38:54.092Z,99882.14
2019-04-25T17:41:41.901Z,99887.69
2019-04-25T17:44:10.307Z,99885.81
2019-04-25T17:47:06.137Z,99877.48
2019-04-25T17:49:27.941Z,99867.69
2019-04-25T17:52:15.601Z,99866.40
2019-04-25T17:55:03.245Z,99870.06
2019-04-25T17:57:50.902Z,99871.66
2019-04-25T18:00:59.212Z,99875.16
2019-04-25T18:03:46.858Z,99867.84
2019-04-25T18:06:15.251Z,99867.06
2019-04-25T18:08:44.130Z,99877.41
2019-04-25T18:11:33.716Z,99879.18
2019-04-25T18:16:56.261Z,99870.67
2019-04-25T18:25:17.983Z,99861.44
2019-04-25T18:30:41.687Z,99855.80
2019-04-25T18:33:29.409Z,99859.19
2019-04-25T18:36:37.769Z,99863.35
2019-04-25T18:39:46.278Z,99861.36
2019-04-25T18:42:33.776Z,99860.50
2019-04-25T18:47:38.241Z,99863.87
2019-04-25T18:50:47.740Z,99861.45
2019-04-25T18:53:35.269Z,99859.72
2019-04-25T18:56:22.970Z,99852.63
2019-04-25T18:59:10.498Z,99853.64
2019-04-25T19:01:58.006Z,99858.53
2019-04-25T19:04:45.536Z,99853.45
2019-04-25T19:07:22.405Z,99856.14
2019-04-25T19:09:44.964Z,99869.38
2019-04-25T19:12:33.888Z,99862.79
2019-04-25T19:15:21.905Z,99858.36
2019-04-25T19:18:09.558Z,99857.23
2019-04-25T19:20:57.292Z,99862.27
2019-04-25T19:23:25.805Z,99846.43
2019-04-25T19:26:13.413Z,99848.19
2019-04-25T19:28:42.731Z,99845.88
2019-04-25T19:31:11.931Z,99842.13
2019-04-25T19:33:41.578Z,99841.77
2019-04-25T19:36:10.443Z,99841.46
2019-04-25T19:38:58.160Z,99848.95
2019-04-25T19:44:34.757Z,99847.27
2019-04-25T19:47:03.151Z,99846.30
2019-04-25T19:49:51.741Z,99836.10
2019-04-25T19:52:21.015Z,99845.41
2019-04-25T19:55:08.532Z,99835.53
2019-04-25T19:57:36.929Z,99841.11
2019-04-25T20:03:19.102Z,99842.10
2019-04-25T20:09:02.028Z,99840.87
2019-04-25T20:14:38.766Z,99837.07
2019-04-25T20:17:07.160Z,99834.94
2019-04-25T20:19:54.675Z,99838.63
2019-04-25T20:22:42.389Z,99834.23
2019-04-25T20:25:50.747Z,99828.80
2019-04-25T20:28:19.478Z,99831.59
2019-04-25T20:30:48.539Z,99834.47
2019-04-25T20:33:17.004Z,99827.95
2019-04-25T20:35:46.354Z,99819.38
2019-04-25T20:38:15.632Z,99827.95
2019-04-25T20:40:44.047Z,99820.72
2019-04-25T20:43:12.433Z,99821.55
2019-04-25T20:45:41.004Z,99811.63
2019-04-25T20:48:09.399Z,99804.45
2019-04-25T20:50:37.844Z,99808.46
2019-04-25T20:53:06.242Z,99804.44
2019-04-25T20:55:34.646Z,99801.82
2019-04-25T20:58:03.038Z,99801.70
2019-04-25T21:00:43.788Z,99802.43
2019-04-25T21:03:12.157Z,99798.55
2019-04-25T21:05:40.864Z,99796.84
2019-04-25T21:08:09.279Z,99802.50
2019-04-25T21:10:37.735Z,99800.89
2019-04-25T21:13:07.766Z,99804.98
2019-04-25T21:15:50.718Z,99806.71
2019-04-25T21:18:29.203Z,99805.37
2019-04-25T21:20:57.539Z,99801.71
2019-04-25T21:23:26.025Z,99808.19
2019-04-25T21:25:54.726Z,99803.66
2019-04-25T21:28:23.337Z,99797.01
2019-04-25T21:30:52.642Z,99793.66
2019-04-25T21:33:21.269Z,99792.69
2019-04-25T21:35:50.877Z,99791.66
2019-04-25T21:38:20.075Z,99785.30
2019-04-25T21:41:07.604Z,99784.55
2019-04-25T21:46:25.248Z,99785.17
2019-04-25T21:49:14.613Z,99789.53
2019-04-25T21:52:03.054Z,99785.02
2019-04-25T21:54:32.403Z,99782.50
2019-04-25T21:57:02.526Z,99782.82
2019-04-25T21:59:32.637Z,99784.94
2019-04-25T22:04:56.571Z,99774.42
2019-04-25T22:07:44.719Z,99785.38
2019-04-25T22:10:53.210Z,99783.84
2019-04-25T22:13:21.605Z,99778.72
2019-04-25T22:15:51.726Z,99783.70
2019-04-25T22:18:41.086Z,99782.91
2019-04-25T22:21:37.996Z,99782.69
2019-04-25T22:24:19.830Z,99780.74
2019-04-25T22:32:42.760Z,99783.45
2019-04-25T22:35:51.087Z,99789.30
2019-04-25T22:38:21.195Z,99778.94
2019-04-25T22:40:49.598Z,99779.09
2019-04-25T22:46:08.797Z,99780.18
2019-04-25T22:48:58.024Z,99794.91
2019-04-25T22:51:26.421Z,99842.91
2019-04-25T22:53:56.544Z,99877.78
2019-04-25T22:56:24.943Z,99875.48
2019-04-25T22:59:12.585Z,99855.72
2019-04-25T23:02:19.450Z,99839.25
2019-04-25T23:07:37.235Z,99907.52
2019-04-25T23:13:15.487Z,99880.95
2019-04-25T23:15:43.883Z,99865.64
2019-04-25T23:23:41.481Z,99889.47
2019-04-25T23:26:28.991Z,99888.13
2019-04-25T23:29:16.905Z,99886.41
2019-04-25T23:32:05.780Z,99878.83
2019-04-25T23:34:34.729Z,99865.07
2019-04-25T23:37:22.380Z,99861.20
2019-04-25T23:39:50.774Z,99864.66
2019-04-25T23:42:19.177Z,99886.27
2019-04-25T23:47:36.745Z,99872.41
2019-04-25T23:50:46.767Z,99875.96
2019-04-25T23:53:34.436Z,99867.55
2019-04-25T23:56:22.171Z,99867.61
2019-04-25T23:58:52.350Z,99879.72
